createdAt,value
2023-08-14T00:01:46.815Z,20.80
2023-08-14T00:04:50.316Z,20.73
2023-08-14T00:07:53.525Z,20.68
2023-08-14T00:10:56.457Z,20.66
2023-08-14T00:13:59.353Z,20.63
2023-08-14T00:17:02.191Z,20.62
2023-08-14T00:20:05.762Z,20.60
2023-08-14T00:23:09.170Z,20.57
2023-08-14T00:26:16.159Z,20.55
2023-08-14T00:29:18.991Z,20.53
2023-08-14T00:32:21.966Z,20.52
2023-08-14T00:35:24.889Z,20.52
2023-08-14T00:38:28.165Z,20.49
2023-08-14T00:41:32.191Z,20.47
2023-08-14T00:44:35.095Z,20.46
2023-08-14T00:47:38.854Z,20.45
2023-08-14T00:50:43.900Z,20.42
2023-08-14T00:53:47.170Z,20.38
2023-08-14T00:56:50.448Z,20.34
2023-08-14T00:59:53.530Z,20.28
2023-08-14T01:02:57.102Z,20.21
2023-08-14T01:06:00.673Z,20.13
2023-08-14T01:09:03.659Z,20.05
2023-08-14T01:12:16.393Z,19.96
2023-08-14T01:15:30.081Z,19.86
2023-08-14T01:18:35.070Z,19.77
2023-08-14T01:21:52.388Z,19.69
2023-08-14T01:25:28.403Z,19.62
2023-08-14T01:28:32.105Z,19.55
2023-08-14T01:31:35.034Z,19.52
2023-08-14T01:34:38.048Z,19.49
2023-08-14T01:37:56.038Z,19.48
2023-08-14T01:41:56.575Z,19.46
2023-08-14T01:45:03.449Z,19.38
2023-08-14T01:48:12.721Z,19.29
2023-08-14T01:51:17.764Z,19.20
2023-08-14T01:54:21.344Z,19.13
2023-08-14T01:57:24.202Z,19.07
2023-08-14T02:00:27.959Z,19.04
2023-08-14T02:03:31.468Z,18.99
2023-08-14T02:06:34.866Z,18.94
2023-08-14T02:09:38.234Z,18.91
2023-08-14T02:12:41.176Z,18.87
2023-08-14T02:15:47.482Z,18.84
2023-08-14T02:18:50.544Z,18.80
2023-08-14T02:21:53.649Z,18.78
2023-08-14T02:24:56.560Z,18.72
2023-08-14T02:27:59.452Z,18.66
2023-08-14T02:31:04.248Z,18.61
2023-08-14T02:34:07.281Z,18.55
2023-08-14T02:37:10.824Z,18.51
2023-08-14T02:40:13.739Z,18.48
2023-08-14T02:43:16.737Z,18.45
2023-08-14T02:46:19.654Z,18.43
2023-08-14T02:49:22.796Z,18.41
2023-08-14T02:52:25.607Z,18.39
2023-08-14T02:55:28.561Z,18.38
2023-08-14T02:58:32.687Z,18.39
2023-08-14T03:01:35.655Z,18.39
2023-08-14T03:04:38.583Z,18.40
2023-08-14T03:07:41.534Z,18.40
2023-08-14T03:10:44.445Z,18.39
2023-08-14T03:13:47.401Z,18.39
2023-08-14T03:16:50.516Z,18.40
2023-08-14T03:19:53.591Z,18.40
2023-08-14T03:22:56.537Z,18.42
2023-08-14T03:25:59.475Z,18.47
2023-08-14T03:29:02.418Z,18.50
2023-08-14T03:32:05.645Z,18.52
2023-08-14T03:35:08.669Z,18.52
2023-08-14T03:38:11.515Z,18.52
2023-08-14T03:41:14.480Z,18.53
2023-08-14T03:44:17.404Z,18.55
2023-08-14T03:47:20.407Z,18.59
2023-08-14T03:50:23.587Z,18.66
2023-08-14T03:53:26.522Z,18.77
2023-08-14T03:56:29.784Z,18.91
2023-08-14T03:59:32.757Z,19.10
2023-08-14T04:02:35.699Z,19.52
2023-08-14T04:05:42.257Z,20.04
2023-08-14T04:08:45.123Z,20.41
2023-08-14T04:11:48.066Z,20.65
2023-08-14T04:14:51.519Z,21.01
2023-08-14T04:17:54.553Z,21.71
2023-08-14T04:20:58.362Z,22.65
2023-08-14T04:24:01.201Z,23.27
2023-08-14T04:27:04.343Z,24.07
2023-08-14T04:30:07.691Z,25.37
2023-08-14T04:33:10.654Z,26.81
2023-08-14T04:36:13.640Z,28.28
2023-08-14T04:39:16.730Z,29.68
2023-08-14T04:42:19.848Z,30.59
2023-08-14T04:45:23.215Z,30.64
2023-08-14T04:48:26.171Z,29.97
2023-08-14T04:51:29.517Z,29.22
2023-08-14T04:54:33.299Z,28.61
2023-08-14T04:57:36.214Z,28.12
2023-08-14T05:00:39.854Z,27.72
2023-08-14T05:03:42.754Z,27.42
2023-08-14T05:06:46.092Z,27.23
2023-08-14T05:09:49.663Z,27.05
2023-08-14T05:12:52.717Z,26.85
2023-08-14T05:16:07.064Z,26.72
2023-08-14T05:19:11.061Z,26.71
2023-08-14T05:22:13.995Z,26.77
2023-08-14T05:25:16.820Z,26.82
2023-08-14T05:28:19.794Z,26.91
2023-08-14T05:31:22.732Z,27.00
2023-08-14T05:34:25.586Z,27.08
2023-08-14T05:37:28.461Z,27.18
2023-08-14T05:40:31.377Z,27.31
2023-08-14T05:43:34.269Z,27.50
2023-08-14T05:46:37.147Z,27.73
2023-08-14T05:49:40.243Z,27.97
2023-08-14T05:52:44.354Z,28.22
2023-08-14T05:55:47.297Z,28.42
2023-08-14T05:58:50.196Z,28.60
2023-08-14T06:01:55.638Z,28.61
2023-08-14T06:05:00.471Z,28.51
2023-08-14T06:08:05.087Z,28.45
2023-08-14T06:11:08.014Z,28.38
2023-08-14T06:14:10.892Z,28.42
2023-08-14T06:17:13.799Z,28.51
2023-08-14T06:20:16.781Z,28.59
2023-08-14T06:23:20.383Z,28.70
2023-08-14T06:26:23.534Z,28.75
2023-08-14T06:29:26.387Z,28.73
2023-08-14T06:32:29.321Z,28.68
2023-08-14T06:35:32.211Z,28.62
2023-08-14T06:38:35.491Z,28.61
2023-08-14T06:41:38.405Z,28.62
2023-08-14T06:44:41.343Z,28.62
2023-08-14T06:47:46.307Z,28.74
2023-08-14T06:50:49.332Z,28.73
2023-08-14T06:53:54.019Z,28.71
2023-08-14T06:56:58.583Z,28.77
2023-08-14T07:00:07.306Z,28.94
2023-08-14T07:03:10.364Z,29.09
2023-08-14T07:06:13.336Z,29.26
2023-08-14T07:09:17.986Z,29.44
2023-08-14T07:12:21.165Z,29.62
2023-08-14T07:15:24.338Z,29.76
2023-08-14T07:18:27.158Z,29.88
2023-08-14T07:21:30.176Z,29.94
2023-08-14T07:24:33.125Z,29.98
2023-08-14T07:27:35.979Z,30.03
2023-08-14T07:30:40.007Z,30.05
2023-08-14T07:33:42.882Z,30.05
2023-08-14T07:36:45.734Z,30.05
2023-08-14T07:39:48.807Z,30.04
2023-08-14T07:42:51.767Z,30.01
2023-08-14T07:45:55.609Z,29.97
2023-08-14T07:48:58.644Z,30.00
2023-08-14T07:52:01.622Z,30.03
2023-08-14T07:55:05.021Z,30.06
2023-08-14T07:58:07.898Z,30.11
2023-08-14T08:01:11.191Z,30.15
2023-08-14T08:04:26.500Z,30.20
2023-08-14T08:10:36.916Z,30.27
2023-08-14T08:13:40.078Z,30.27
2023-08-14T08:16:42.885Z,30.25
2023-08-14T08:19:47.773Z,30.29
2023-08-14T08:22:51.195Z,30.28
2023-08-14T08:25:54.216Z,30.30
2023-08-14T08:28:57.197Z,30.33
2023-08-14T08:32:00.119Z,30.33
2023-08-14T08:35:03.092Z,30.31
2023-08-14T08:38:06.159Z,30.29
2023-08-14T08:41:09.200Z,30.30
2023-08-14T08:44:22.705Z,30.28
2023-08-14T08:47:30.452Z,30.28
2023-08-14T08:50:34.341Z,30.31
2023-08-14T08:53:37.460Z,30.40
2023-08-14T08:56:41.595Z,30.48
2023-08-14T08:59:44.942Z,30.51
2023-08-14T09:02:47.784Z,30.52
2023-08-14T09:05:52.621Z,30.52
2023-08-14T09:08:55.342Z,30.57
2023-08-14T09:11:58.158Z,30.61
2023-08-14T09:15:09.527Z,30.63
2023-08-14T09:18:12.392Z,30.70
2023-08-14T09:21:16.702Z,30.72
2023-08-14T09:24:20.186Z,30.70
2023-08-14T09:27:24.409Z,30.69
2023-08-14T09:30:28.010Z,30.73
2023-08-14T09:33:30.975Z,30.76
2023-08-14T09:36:37.728Z,30.73
2023-08-14T09:39:40.713Z,30.73
2023-08-14T09:42:45.481Z,30.74
2023-08-14T09:45:48.551Z,30.77
2023-08-14T09:48:51.544Z,30.79
2023-08-14T09:51:58.765Z,30.82
2023-08-14T09:55:10.896Z,30.81
2023-08-14T09:58:14.688Z,30.81
2023-08-14T10:01:19.545Z,30.86
2023-08-14T10:04:23.798Z,30.93
2023-08-14T10:07:27.625Z,30.96
2023-08-14T10:10:32.348Z,30.95
2023-08-14T10:13:43.231Z,30.94
2023-08-14T10:16:49.740Z,30.95
2023-08-14T10:19:54.707Z,30.98
2023-08-14T10:22:58.703Z,31.02
2023-08-14T10:26:02.525Z,31.02
2023-08-14T10:29:06.901Z,31.00
2023-08-14T10:32:10.664Z,31.02
2023-08-14T10:35:13.669Z,31.03
2023-08-14T10:38:18.273Z,31.04
2023-08-14T10:41:34.389Z,31.01
2023-08-14T10:44:37.441Z,30.99
2023-08-14T10:47:40.451Z,31.05
2023-08-14T10:50:43.369Z,31.10
2023-08-14T10:53:46.619Z,31.19
2023-08-14T10:57:00.485Z,31.25
2023-08-14T11:00:04.595Z,31.28
2023-08-14T11:03:09.670Z,31.25
2023-08-14T11:06:22.974Z,31.22
2023-08-14T11:09:33.728Z,31.22
2023-08-14T11:12:37.231Z,31.20
2023-08-14T11:15:41.199Z,31.18
2023-08-14T11:18:44.368Z,31.17
2023-08-14T11:21:49.543Z,31.18
2023-08-14T11:24:53.148Z,31.21
2023-08-14T11:27:56.969Z,31.22
2023-08-14T11:30:59.855Z,31.23
2023-08-14T11:34:03.032Z,31.23
2023-08-14T11:37:07.833Z,31.24
2023-08-14T11:40:14.304Z,31.28
2023-08-14T11:43:17.256Z,31.36
2023-08-14T11:46:20.376Z,31.38
2023-08-14T11:49:24.344Z,31.38
2023-08-14T11:52:28.181Z,31.40
2023-08-14T11:55:31.232Z,31.39
2023-08-14T11:58:38.191Z,31.40
2023-08-14T12:01:42.618Z,31.43
2023-08-14T12:04:45.612Z,31.44
2023-08-14T12:07:48.556Z,31.50
2023-08-14T12:10:51.452Z,31.51
2023-08-14T12:13:54.384Z,31.50
2023-08-14T12:16:58.875Z,31.52
2023-08-14T12:20:06.857Z,31.52
2023-08-14T12:23:14.457Z,31.54
2023-08-14T12:26:17.333Z,31.59
2023-08-14T12:29:22.096Z,31.62
2023-08-14T12:32:25.676Z,31.64
2023-08-14T12:35:28.661Z,31.64
2023-08-14T12:38:31.511Z,31.63
2023-08-14T12:41:34.498Z,31.63
2023-08-14T12:44:37.410Z,31.68
2023-08-14T12:47:40.359Z,31.70
2023-08-14T12:50:43.368Z,31.75
2023-08-14T12:53:46.170Z,31.80
2023-08-14T12:56:49.141Z,31.84
2023-08-14T12:59:52.040Z,31.86
2023-08-14T13:02:54.882Z,31.87
2023-08-14T13:05:58.273Z,31.87
2023-08-14T13:09:02.950Z,31.91
2023-08-14T13:12:06.632Z,31.95
2023-08-14T13:15:09.587Z,31.99
2023-08-14T13:18:12.373Z,31.98
2023-08-14T13:21:15.328Z,31.99
2023-08-14T13:24:18.203Z,32.00
2023-08-14T13:27:21.481Z,32.05
2023-08-14T13:30:24.600Z,32.09
2023-08-14T13:33:27.462Z,32.07
2023-08-14T13:36:30.437Z,32.08
2023-08-14T13:39:33.477Z,32.11
2023-08-14T13:42:36.319Z,32.12
2023-08-14T13:45:39.102Z,32.12
2023-08-14T13:48:42.174Z,32.14
2023-08-14T13:51:46.055Z,32.12
2023-08-14T13:54:51.289Z,32.08
2023-08-14T13:57:56.829Z,32.08
2023-08-14T14:01:02.943Z,32.10
2023-08-14T14:04:06.987Z,32.14
2023-08-14T14:07:12.474Z,32.15
2023-08-14T14:10:15.518Z,32.14
2023-08-14T14:13:18.647Z,32.14
2023-08-14T14:16:23.471Z,32.17
2023-08-14T14:19:27.690Z,32.22
2023-08-14T14:22:30.638Z,32.26
2023-08-14T14:25:33.484Z,32.25
2023-08-14T14:28:36.349Z,32.22
2023-08-14T14:31:39.275Z,32.16
2023-08-14T14:34:42.294Z,32.13
2023-08-14T14:37:46.788Z,32.12
2023-08-14T14:40:49.650Z,32.12
2023-08-14T14:43:52.524Z,32.12
2023-08-14T14:46:55.732Z,32.14
2023-08-14T14:49:58.709Z,32.12
2023-08-14T14:53:01.564Z,32.09
2023-08-14T14:56:06.059Z,32.06
2023-08-14T14:59:08.892Z,32.03
2023-08-14T15:02:23.573Z,32.01
2023-08-14T15:05:32.079Z,31.98
2023-08-14T15:08:34.931Z,31.93
2023-08-14T15:11:37.885Z,31.89
2023-08-14T15:14:40.816Z,31.88
2023-08-14T15:17:44.863Z,31.86
2023-08-14T15:20:47.907Z,31.81
2023-08-14T15:23:50.747Z,31.80
2023-08-14T15:26:53.520Z,31.80
2023-08-14T15:29:56.429Z,31.75
2023-08-14T15:32:59.261Z,31.73
2023-08-14T15:36:02.192Z,31.69
2023-08-14T15:39:05.370Z,31.66
2023-08-14T15:42:08.276Z,31.63
2023-08-14T15:45:14.288Z,31.57
2023-08-14T15:48:17.631Z,31.50
2023-08-14T15:51:20.914Z,31.43
2023-08-14T15:54:23.733Z,31.36
2023-08-14T15:57:27.239Z,31.28
2023-08-14T16:00:30.111Z,31.22
2023-08-14T16:03:32.996Z,31.14
2023-08-14T16:06:35.869Z,31.07
2023-08-14T16:09:39.126Z,30.99
2023-08-14T16:12:42.028Z,30.90
2023-08-14T16:15:44.858Z,30.81
2023-08-14T16:18:47.717Z,30.73
2023-08-14T16:21:50.494Z,30.67
2023-08-14T16:24:53.334Z,30.59
2023-08-14T16:27:56.182Z,30.47
2023-08-14T16:30:59.164Z,30.33
2023-08-14T16:34:02.490Z,30.21
2023-08-14T16:37:05.529Z,30.09
2023-08-14T16:40:09.243Z,29.97
2023-08-14T16:43:12.975Z,29.85
2023-08-14T16:46:15.898Z,29.75
2023-08-14T16:49:18.776Z,29.64
2023-08-14T16:52:21.610Z,29.52
2023-08-14T16:55:24.754Z,29.40
2023-08-14T16:58:27.669Z,29.26
2023-08-14T17:01:30.487Z,29.10
2023-08-14T17:04:34.096Z,28.93
2023-08-14T17:07:37.049Z,28.78
2023-08-14T17:10:40.054Z,28.62
2023-08-14T17:13:43.055Z,28.63
2023-08-14T17:16:45.985Z,28.83
2023-08-14T17:19:48.836Z,29.09
2023-08-14T17:22:51.683Z,29.32
2023-08-14T17:25:55.256Z,29.49
2023-08-14T17:28:58.190Z,29.52
2023-08-14T17:32:01.166Z,29.43
2023-08-14T17:35:04.297Z,29.18
2023-08-14T17:38:07.126Z,28.81
2023-08-14T17:41:11.758Z,28.37
2023-08-14T17:44:14.886Z,27.93
2023-08-14T17:47:18.108Z,27.49
2023-08-14T17:50:21.327Z,27.08
2023-08-14T17:53:25.760Z,26.69
2023-08-14T17:56:28.999Z,26.31
2023-08-14T17:59:32.503Z,25.96
2023-08-14T18:02:35.618Z,25.64
2023-08-14T18:05:38.568Z,25.32
2023-08-14T18:08:41.481Z,24.98
2023-08-14T18:11:44.520Z,24.66
2023-08-14T18:14:47.810Z,24.37
2023-08-14T18:17:50.797Z,24.10
2023-08-14T18:20:54.002Z,23.85
2023-08-14T18:23:57.076Z,23.60
2023-08-14T18:27:00.039Z,23.37
2023-08-14T18:30:03.135Z,23.15
2023-08-14T18:33:06.151Z,22.93
2023-08-14T18:36:09.127Z,22.72
2023-08-14T18:39:11.993Z,22.52
2023-08-14T18:42:14.864Z,22.32
2023-08-14T18:45:17.811Z,22.14
2023-08-14T18:48:20.684Z,21.98
2023-08-14T18:51:23.665Z,21.82
2023-08-14T18:54:27.306Z,21.71
2023-08-14T18:57:30.196Z,21.60
2023-08-14T19:00:33.149Z,21.50
2023-08-14T19:03:36.084Z,21.38
2023-08-14T19:06:39.210Z,21.24
2023-08-14T19:09:48.525Z,21.11
2023-08-14T19:13:14.177Z,20.95
2023-08-14T19:16:17.242Z,20.83
2023-08-14T19:19:20.146Z,20.72
2023-08-14T19:22:23.895Z,20.60
2023-08-14T19:25:30.036Z,20.47
2023-08-14T19:28:50.105Z,20.34
2023-08-14T19:32:01.905Z,20.23
2023-08-14T19:35:05.951Z,20.13
2023-08-14T19:38:08.899Z,20.04
2023-08-14T19:41:11.853Z,19.97
2023-08-14T19:44:15.909Z,19.91
2023-08-14T19:47:19.044Z,19.88
2023-08-14T19:50:25.212Z,19.82
2023-08-14T19:53:28.208Z,19.79
2023-08-14T19:56:31.250Z,19.73
2023-08-14T19:59:34.225Z,19.68
2023-08-14T20:02:37.182Z,19.63
2023-08-14T20:05:46.020Z,19.58
2023-08-14T20:08:49.139Z,19.53
2023-08-14T20:11:52.038Z,19.48
2023-08-14T20:14:55.957Z,19.41
2023-08-14T20:17:58.935Z,19.36
2023-08-14T20:21:01.992Z,19.33
2023-08-14T20:24:05.551Z,19.29
2023-08-14T20:27:09.101Z,19.27
2023-08-14T20:30:12.733Z,19.24
2023-08-14T20:33:16.134Z,19.22
2023-08-14T20:36:23.319Z,19.20
2023-08-14T20:39:28.886Z,19.20
2023-08-14T20:42:32.018Z,19.22
2023-08-14T20:45:37.804Z,19.25
2023-08-14T20:48:40.982Z,19.25
2023-08-14T20:51:44.029Z,19.24
2023-08-14T20:54:46.986Z,19.24
2023-08-14T20:57:49.941Z,19.22
2023-08-14T21:00:53.240Z,19.19
2023-08-14T21:03:56.296Z,19.16
2023-08-14T21:06:59.392Z,19.14
2023-08-14T21:10:02.481Z,19.10
2023-08-14T21:13:05.843Z,19.09
2023-08-14T21:16:09.154Z,19.08
2023-08-14T21:19:12.960Z,19.08
2023-08-14T21:22:16.367Z,19.07
2023-08-14T21:25:19.480Z,19.09
2023-08-14T21:28:22.613Z,19.17
2023-08-14T21:31:25.712Z,19.25
2023-08-14T21:34:30.600Z,19.31
2023-08-14T21:37:34.020Z,19.36
2023-08-14T21:40:40.328Z,19.39
2023-08-14T21:43:43.443Z,19.42
2023-08-14T21:46:46.415Z,19.46
2023-08-14T21:49:49.549Z,19.49
2023-08-14T21:52:52.476Z,19.53
2023-08-14T21:55:55.367Z,19.55
2023-08-14T21:58:58.408Z,19.58
2023-08-14T22:02:01.350Z,19.60
2023-08-14T22:05:04.651Z,19.60
2023-08-14T22:08:07.646Z,19.58
2023-08-14T22:11:11.255Z,19.54
2023-08-14T22:14:14.180Z,19.48
2023-08-14T22:17:17.341Z,19.42
2023-08-14T22:20:20.537Z,19.35
2023-08-14T22:23:23.457Z,19.29
2023-08-14T22:26:26.350Z,19.24
2023-08-14T22:29:29.219Z,19.19
2023-08-14T22:32:32.369Z,19.14
2023-08-14T22:35:35.267Z,19.08
2023-08-14T22:38:39.022Z,19.03
2023-08-14T22:41:41.922Z,19.02
2023-08-14T22:44:44.913Z,19.03
2023-08-14T22:47:50.415Z,19.03
2023-08-14T22:50:54.895Z,19.02
2023-08-14T22:53:58.396Z,19.00
2023-08-14T22:57:03.618Z,18.99
2023-08-14T23:00:10.063Z,18.99
2023-08-14T23:03:13.110Z,18.98
2023-08-14T23:06:16.203Z,18.99
2023-08-14T23:09:19.588Z,19.03
2023-08-14T23:12:22.592Z,19.09
2023-08-14T23:15:25.544Z,19.14
2023-08-14T23:18:28.655Z,19.16
2023-08-14T23:21:31.563Z,19.20
2023-08-14T23:24:34.450Z,19.26
2023-08-14T23:27:38.228Z,19.32
2023-08-14T23:30:41.669Z,19.35
2023-08-14T23:33:45.053Z,19.36
2023-08-14T23:36:48.276Z,19.38
2023-08-14T23:39:51.152Z,19.40
2023-08-14T23:42:54.055Z,19.43
2023-08-14T23:45:56.949Z,19.44
2023-08-14T23:48:59.905Z,19.44
2023-08-14T23:52:03.375Z,19.44
2023-08-14T23:55:07.074Z,19.43
2023-08-14T23:58:10.197Z,19.41
